Terminal Aerodrome Forecast
Issued by NWS

Home | Current Version | Previous Version | Text Only | Print | Product List | Glossary On
Versions: 1 2 3 4 5 6 7 8 9 10 11 12 13 14 15 16
000
FTUS45 KABQ 260700 AAA
TAFGUP
TAF AMD
KGUP 260710Z 2607/2706 25013KT P6SM OVC021
      TEMPO 2607/2611 5SM -RA BR OVC012
     FM261200 25010KT P6SM -SHRA OVC020
     FM261600 27011KT 5SM -RA OVC025
     FM262300 30011KT P6SM VCSH OVC035
     FM270200 34007KT P6SM OVC060=

USA.gov is the U.S. government's official web portal to all federal, state and local government web resources and services.